Time;durP1;ratioP1;P1;durP2;ratioP2;P2;SDS_P1;SDS_P2;PMS_P1;PMS_P2;Temp;Humidity;BMP_temperature;BMP_pressure;BME280_temperature;BME280_humidity;BME280_pressure;Samples;Min_cycle;Max_cycle;Signal;HPM_P1;HPM_P2
2023/04/27 00:00:12;;;;;;;24.92;11.50;;;;;;;3.96;80.68;99788.97;5052663;28;20017;-75
2023/04/27 00:02:37;;;;;;;21.35;11.80;;;;;;;4.05;80.60;99809.44;5051990;28;20033;-75
2023/04/27 00:05:04;;;;;;;18.63;11.05;;;;;;;3.72;81.04;99769.66;5052056;28;20408;-75
2023/04/27 00:07:30;;;;;;;21.23;11.88;;;;;;;3.71;81.56;99783.41;5051845;28;20419;-75
2023/04/27 00:09:55;;;;;;;19.80;11.88;;;;;;;3.72;82.42;99792.84;5052012;28;20424;-75
2023/04/27 00:12:21;;;;;;;21.95;12.48;;;;;;;3.55;82.70;99777.66;5052238;28;20071;-75
2023/04/27 00:14:46;;;;;;;19.83;12.07;;;;;;;3.68;83.17;99809.22;5052415;28;20384;-75
2023/04/27 00:17:11;;;;;;;19.45;12.75;;;;;;;3.76;82.57;99807.38;5052042;28;20032;-75
2023/04/27 00:19:38;;;;;;;23.38;12.35;;;;;;;3.77;82.40;99803.91;5052128;28;20020;-75
2023/04/27 00:22:03;;;;;;;20.38;12.30;;;;;;;3.73;82.78;99807.41;5052061;28;20028;-75
2023/04/27 00:24:29;;;;;;;18.00;11.38;;;;;;;3.63;82.57;99787.84;5052223;28;20025;-75
2023/04/27 00:26:54;;;;;;;19.15;11.40;;;;;;;3.70;82.36;99807.44;5051498;28;20044;-75
2023/04/27 00:29:20;;;;;;;26.00;13.05;;;;;;;3.71;82.61;99799.72;5051820;28;20461;-75
2023/04/27 00:31:45;;;;;;;20.02;11.27;;;;;;;3.69;82.66;99800.59;5051589;28;20051;-75
2023/04/27 00:34:10;;;;;;;18.58;11.73;;;;;;;3.50;82.66;99787.19;5051779;28;20036;-75
2023/04/27 00:36:36;;;;;;;17.05;10.98;;;;;;;3.62;83.01;99812.72;5051911;28;20158;-75
2023/04/27 00:39:03;;;;;;;19.35;11.23;;;;;;;3.60;82.96;99811.91;5051600;28;20025;-75
2023/04/27 00:41:28;;;;;;;21.25;11.75;;;;;;;3.55;82.77;99802.56;5052158;28;20035;-75
2023/04/27 00:43:53;;;;;;;19.52;11.18;;;;;;;3.32;83.19;99784.88;5051723;28;20104;-75
2023/04/27 00:46:19;;;;;;;19.65;11.65;;;;;;;3.37;83.09;99790.78;5051580;28;20477;-75
2023/04/27 00:48:45;;;;;;;19.13;11.23;;;;;;;3.48;83.13;99806.94;5051536;28;20032;-75
2023/04/27 00:51:10;;;;;;;23.08;12.82;;;;;;;3.53;82.94;99812.88;5051781;28;20037;-75
2023/04/27 00:53:36;;;;;;;18.98;12.15;;;;;;;3.34;82.52;99781.41;5051498;28;20036;-75
2023/04/27 00:56:03;;;;;;;19.58;11.98;;;;;;;3.43;82.45;99783.84;5051418;28;20087;-75
2023/04/27 00:58:29;;;;;;;22.10;11.65;;;;;;;3.46;82.06;99796.66;5051571;28;20025;-75
2023/04/27 01:00:54;;;;;;;20.23;12.55;;;;;;;3.54;81.79;99812.00;5051219;28;20116;-75
2023/04/27 01:03:20;;;;;;;20.95;12.05;;;;;;;3.55;82.02;99816.28;5051646;28;20430;-75
2023/04/27 01:05:46;;;;;;;19.67;11.90;;;;;;;3.54;81.82;99814.59;5051367;28;20028;-75
2023/04/27 01:08:11;;;;;;;22.33;11.75;;;;;;;3.29;81.75;99780.63;5051774;28;20067;-75
2023/04/27 01:10:36;;;;;;;25.52;12.00;;;;;;;3.30;81.97;99804.66;5051501;28;20066;-75
2023/04/27 01:13:02;;;;;;;21.45;11.65;;;;;;;3.26;82.33;99803.84;5051198;28;20043;-75
2023/04/27 01:15:28;;;;;;;21.40;12.48;;;;;;;3.22;82.71;99802.19;5051273;28;20025;-75
2023/04/27 01:18:00;;;;;;;20.63;12.93;;;;;;;3.16;82.52;99785.13;5053681;28;20033;-75
2023/04/27 01:20:29;;;;;;;21.75;12.88;;;;;;;3.34;82.34;99817.44;5055524;28;20021;-75
2023/04/27 01:22:58;;;;;;;20.35;13.02;;;;;;;3.32;82.42;99814.03;5055267;28;20028;-75
2023/04/27 01:25:24;;;;;;;21.95;14.20;;;;;;;3.18;82.38;99793.66;5055422;28;20040;-75
2023/04/27 01:27:49;;;;;;;23.25;13.35;;;;;;;3.20;82.37;99803.91;5054809;28;20048;-75
2023/04/27 01:30:15;;;;;;;26.33;14.70;;;;;;;3.04;83.10;99797.31;5055266;28;20033;-75
2023/04/27 01:32:41;;;;;;;21.40;13.13;;;;;;;3.10;84.13;99815.22;5055248;28;20029;-75
2023/04/27 01:35:07;;;;;;;21.08;14.30;;;;;;;2.95;83.80;99800.81;5054961;28;20108;-75
2023/04/27 01:37:32;;;;;;;19.02;12.90;;;;;;;3.00;84.35;99824.78;5055091;28;20029;-75
2023/04/27 01:39:58;;;;;;;22.10;14.13;;;;;;;2.91;84.19;99799.19;5054660;28;20088;-75
2023/04/27 01:42:23;;;;;;;26.55;15.95;;;;;;;2.83;84.03;99794.13;5055131;28;20060;-75
2023/04/27 01:44:48;;;;;;;19.63;12.43;;;;;;;2.89;84.03;99806.06;5054865;28;20032;-75
2023/04/27 01:47:16;;;;;;;21.67;13.68;;;;;;;2.82;84.97;99800.13;5055292;28;20029;-75
2023/04/27 01:49:41;;;;;;;22.73;13.55;;;;;;;2.85;84.87;99820.69;5054708;28;20527;-75
2023/04/27 01:52:06;;;;;;;25.02;13.15;;;;;;;2.92;85.38;99831.75;5054617;28;20029;-75
2023/04/27 01:54:32;;;;;;;20.45;14.40;;;;;;;2.82;84.17;99814.72;5054835;28;20112;-75
2023/04/27 01:56:57;;;;;;;20.30;13.85;;;;;;;2.84;83.81;99805.28;5054440;28;20107;-75
2023/04/27 01:59:23;;;;;;;21.55;13.75;;;;;;;2.84;83.46;99806.13;5054581;28;20025;-75
2023/04/27 02:01:48;;;;;;;25.88;17.23;;;;;;;2.68;83.30;99784.88;5054323;28;20120;-74
2023/04/27 02:04:13;;;;;;;26.75;18.45;;;;;;;2.91;84.07;99835.19;5054508;28;20033;-75
2023/04/27 02:06:40;;;;;;;26.17;16.75;;;;;;;2.81;84.50;99826.72;5054892;28;20047;-75
2023/04/27 02:09:05;;;;;;;33.70;19.73;;;;;;;2.81;83.73;99819.00;5054173;28;20023;-75
2023/04/27 02:11:31;;;;;;;30.42;19.23;;;;;;;2.87;83.49;99820.69;5054287;28;20025;-75
2023/04/27 02:13:56;;;;;;;33.72;20.27;;;;;;;2.93;83.58;99836.88;5054133;28;20461;-75
2023/04/27 02:16:21;;;;;;;33.42;17.90;;;;;;;2.85;83.96;99832.69;5054447;28;20091;-75
2023/04/27 02:18:47;;;;;;;28.25;18.63;;;;;;;2.71;84.95;99826.00;5054166;28;20111;-75
2023/04/27 02:21:13;;;;;;;35.10;20.63;;;;;;;2.75;85.41;99834.53;5054337;28;20036;-75
2023/04/27 02:23:38;;;;;;;26.00;16.77;;;;;;;2.69;85.70;99845.72;5054218;28;20025;-75
2023/04/27 02:26:04;;;;;;;28.35;17.55;;;;;;;2.67;85.26;99841.47;5053663;28;20044;-75
2023/04/27 02:28:31;;;;;;;26.83;16.15;;;;;;;2.62;85.43;99835.53;5053038;28;20029;-75
2023/04/27 02:30:56;;;;;;;25.02;16.25;;;;;;;2.49;85.48;99817.69;5054020;28;20035;-75
2023/04/27 02:33:21;;;;;;;29.00;15.73;;;;;;;2.65;85.65;99836.34;5052830;28;20021;-75
2023/04/27 02:35:47;;;;;;;29.75;16.00;;;;;;;2.55;85.18;99816.75;5054129;28;20511;-75
2023/04/27 02:38:12;;;;;;;28.13;16.05;;;;;;;2.71;84.13;99846.56;5054476;28;20449;-75
2023/04/27 02:40:38;;;;;;;26.48;16.58;;;;;;;2.67;84.07;99834.63;5053791;28;20029;-75
2023/04/27 02:43:03;;;;;;;27.58;15.52;;;;;;;2.67;84.09;99831.19;5053530;28;20021;-75
2023/04/27 02:45:28;;;;;;;26.15;16.48;;;;;;;2.67;83.85;99828.63;5053912;28;20021;-75
2023/04/27 02:47:54;;;;;;;24.52;15.90;;;;;;;2.73;83.92;99847.38;5053561;28;20025;-75
2023/04/27 02:50:19;;;;;;;22.75;13.25;;;;;;;2.56;83.97;99812.47;5053696;28;20025;-75
2023/04/27 02:52:44;;;;;;;22.27;13.30;;;;;;;2.55;84.49;99821.03;5053720;28;20025;-75
2023/04/27 02:55:10;;;;;;;25.05;14.43;;;;;;;2.63;84.25;99843.22;5053367;28;20116;-75
2023/04/27 02:57:36;;;;;;;18.02;11.43;;;;;;;2.60;84.11;99853.53;5052425;28;20255;-75
2023/04/27 03:00:03;;;;;;;22.48;12.77;;;;;;;2.47;84.50;99831.41;5053449;28;20029;-75
2023/04/27 03:02:29;;;;;;;22.17;12.95;;;;;;;2.58;84.53;99857.03;5053625;28;20024;-75
2023/04/27 03:04:54;;;;;;;19.73;12.32;;;;;;;2.48;84.38;99841.66;5053223;28;20503;-75
2023/04/27 03:07:21;;;;;;;23.60;12.48;;;;;;;2.54;84.56;99848.47;5053418;28;20074;-75
2023/04/27 03:09:46;;;;;;;22.08;12.57;;;;;;;2.43;84.47;99835.72;5053219;28;20082;-75
2023/04/27 03:12:12;;;;;;;20.38;13.10;;;;;;;2.36;84.86;99821.25;5052981;28;20021;-75
2023/04/27 03:14:37;;;;;;;20.30;12.02;;;;;;;2.55;85.09;99849.31;5053438;28;20029;-75
2023/04/27 03:17:02;;;;;;;23.55;13.95;;;;;;;2.41;84.80;99831.50;5053147;28;20032;-75
2023/04/27 03:19:28;;;;;;;24.08;14.75;;;;;;;2.50;84.71;99855.38;5053089;28;20064;-75
2023/04/27 03:21:53;;;;;;;21.50;12.75;;;;;;;2.42;84.55;99846.03;5052841;28;20025;-75
2023/04/27 03:24:18;;;;;;;20.63;13.75;;;;;;;2.42;84.59;99857.16;5053087;28;20468;-75
2023/04/27 03:26:44;;;;;;;21.45;13.93;;;;;;;2.41;84.90;99841.78;5052859;28;20056;-75
2023/04/27 03:29:09;;;;;;;22.90;13.73;;;;;;;2.39;85.52;99846.91;5052671;28;20476;-75
2023/04/27 03:31:34;;;;;;;21.50;13.00;;;;;;;2.45;85.12;99853.72;5053335;28;20033;-75
2023/04/27 03:34:00;;;;;;;22.60;13.90;;;;;;;2.48;85.22;99856.25;5052707;28;20476;-75
2023/04/27 03:36:26;;;;;;;20.05;13.02;;;;;;;2.49;85.35;99860.53;5052800;28;20049;-75
2023/04/27 03:38:51;;;;;;;22.38;12.82;;;;;;;2.54;85.88;99863.06;5052504;28;20032;-75
2023/04/27 03:41:16;;;;;;;21.80;12.93;;;;;;;2.53;85.66;99864.78;5052407;28;20439;-75
2023/04/27 03:43:42;;;;;;;24.33;14.60;;;;;;;2.51;85.92;99858.78;5053081;28;20032;-75
2023/04/27 03:46:07;;;;;;;21.20;13.15;;;;;;;2.38;85.76;99834.94;5052122;28;20025;-75
2023/04/27 03:48:32;;;;;;;20.95;13.40;;;;;;;2.57;85.49;99866.47;5051713;28;20142;-75
2023/04/27 03:50:59;;;;;;;19.88;13.13;;;;;;;2.67;85.50;99874.91;5052444;28;20048;-75
2023/04/27 03:53:25;;;;;;;24.33;14.02;;;;;;;2.68;85.59;99874.88;5052661;28;20044;-75
2023/04/27 03:55:50;;;;;;;20.27;12.82;;;;;;;2.58;85.80;99849.31;5052499;28;20028;-75
2023/04/27 03:58:16;;;;;;;24.63;13.85;;;;;;;2.71;85.84;99867.16;5052516;28;20029;-75
2023/04/27 04:00:41;;;;;;;23.95;14.45;;;;;;;2.68;85.66;99846.59;5052771;28;20086;-76
2023/04/27 04:03:07;;;;;;;23.17;14.60;;;;;;;2.77;85.38;99853.34;5052175;28;20100;-75
2023/04/27 04:05:32;;;;;;;25.30;15.80;;;;;;;3.00;85.24;99882.25;5052456;28;20036;-75
2023/04/27 04:07:58;;;;;;;27.50;15.63;;;;;;;3.01;84.93;99862.50;5052125;28;20051;-76
2023/04/27 04:10:24;;;;;;;27.48;15.07;;;;;;;3.25;85.06;99879.38;5052267;28;20111;-75
2023/04/27 04:12:50;;;;;;;26.15;16.27;;;;;;;3.32;84.46;99880.97;5052559;28;20033;-76
2023/04/27 04:15:16;;;;;;;27.83;16.20;;;;;;;3.46;84.54;99885.94;5052184;28;20025;-75
2023/04/27 04:17:41;;;;;;;25.10;16.13;;;;;;;3.41;84.36;99868.00;5052239;28;20032;-75
2023/04/27 04:20:10;;;;;;;24.20;14.85;;;;;;;3.42;84.30;99874.00;5052001;28;20036;-75
2023/04/27 04:22:36;;;;;;;27.77;15.90;;;;;;;3.47;84.31;99875.63;5052104;28;20370;-75
2023/04/27 04:25:03;;;;;;;23.98;15.55;;;;;;;3.40;84.89;99839.66;5051825;28;20031;-76
2023/04/27 04:27:28;;;;;;;25.17;14.77;;;;;;;3.71;84.80;99895.03;5051929;28;20128;-76
2023/04/27 04:29:54;;;;;;;22.55;14.30;;;;;;;3.71;84.67;99881.28;5051851;28;20116;-75
2023/04/27 04:32:21;;;;;;;21.88;13.93;;;;;;;3.84;84.50;99906.00;5051836;28;20029;-75
2023/04/27 04:34:49;;;;;;;22.98;13.88;;;;;;;3.87;84.30;99907.66;5052023;28;20029;-75
2023/04/27 04:37:15;;;;;;;20.55;12.55;;;;;;;3.90;84.06;99902.47;5051837;28;20453;-75
2023/04/27 04:39:40;;;;;;;23.65;13.25;;;;;;;3.81;84.15;99875.13;5051760;28;20028;-75
2023/04/27 04:42:06;;;;;;;23.17;12.02;;;;;;;4.11;83.84;99919.31;5051855;28;20465;-75
2023/04/27 04:44:32;;;;;;;18.60;12.30;;;;;;;4.11;84.04;99907.28;5052002;28;20071;-75
2023/04/27 04:46:57;;;;;;;23.00;12.57;;;;;;;4.16;83.48;99904.63;5051678;28;20428;-76
2023/04/27 04:49:22;;;;;;;21.65;12.65;;;;;;;4.16;83.17;99896.88;5051749;28;20025;-75
2023/04/27 04:51:48;;;;;;;18.75;11.52;;;;;;;4.23;82.81;99899.34;5051278;28;20057;-75
2023/04/27 04:54:13;;;;;;;18.63;11.68;;;;;;;4.42;83.07;99928.22;5051778;28;20043;-76
2023/04/27 04:56:39;;;;;;;20.80;12.32;;;;;;;4.49;82.96;99926.41;5051918;28;20133;-76
2023/04/27 04:59:05;;;;;;;20.67;12.18;;;;;;;4.44;82.73;99907.59;5051660;28;20021;-75
2023/04/27 05:01:30;;;;;;;16.00;11.07;;;;;;;4.62;82.57;99929.63;5051808;28;20055;-75
2023/04/27 05:03:56;;;;;;;22.33;11.85;;;;;;;4.58;82.44;99913.34;5051572;28;20429;-76
2023/04/27 05:06:21;;;;;;;25.30;11.32;;;;;;;4.75;81.53;99931.09;5051703;28;20480;-76
2023/04/27 05:08:46;;;;;;;22.23;11.75;;;;;;;4.71;81.56;99921.72;5051733;28;20025;-76
2023/04/27 05:11:12;;;;;;;16.83;10.40;;;;;;;4.73;81.35;99915.66;5051737;28;20025;-75
2023/04/27 05:13:39;;;;;;;19.58;10.52;;;;;;;4.84;81.30;99924.91;5051648;28;20469;-75
2023/04/27 05:16:05;;;;;;;16.20;11.50;;;;;;;4.89;81.01;99921.38;5051475;28;20025;-75
2023/04/27 05:18:31;;;;;;;16.67;10.23;;;;;;;4.97;80.41;99934.13;5051931;28;20025;-75
2023/04/27 05:20:56;;;;;;;22.52;11.25;;;;;;;4.93;80.58;99924.75;5051509;28;20496;-75
2023/04/27 05:23:21;;;;;;;19.25;10.95;;;;;;;5.13;80.49;99945.00;5051308;28;20021;-75
2023/04/27 05:25:46;;;;;;;16.10;10.43;;;;;;;5.21;80.10;99948.28;5051436;28;20033;-75
2023/04/27 05:28:12;;;;;;;18.88;11.25;;;;;;;5.20;79.66;99928.53;5051283;28;20050;-75
2023/04/27 05:30:37;;;;;;;20.02;11.65;;;;;;;5.35;79.45;99927.34;5051649;28;20029;-76
2023/04/27 05:33:03;;;;;;;18.05;11.18;;;;;;;5.58;78.88;99945.81;5051389;28;20528;-76
2023/04/27 05:35:29;;;;;;;17.42;10.45;;;;;;;5.59;78.21;99925.97;5051452;28;20155;-75
2023/04/27 05:37:55;;;;;;;17.17;10.73;;;;;;;5.91;77.59;99945.94;5051217;28;20029;-76
2023/04/27 05:40:21;;;;;;;19.88;11.27;;;;;;;5.87;77.30;99921.06;5051086;28;20354;-76
2023/04/27 05:42:47;;;;;;;16.75;11.57;;;;;;;6.03;76.49;99935.38;5051385;28;20058;-76
2023/04/27 05:45:12;;;;;;;22.80;11.05;;;;;;;6.20;76.35;99946.16;5051200;28;20469;-75
2023/04/27 05:47:37;;;;;;;18.65;11.45;;;;;;;6.36;75.99;99953.53;5051236;28;20388;-75
2023/04/27 05:50:03;;;;;;;17.17;10.73;;;;;;;6.49;75.35;99965.28;5050827;28;20111;-75
2023/04/27 05:52:30;;;;;;;19.13;10.80;;;;;;;6.41;75.45;99939.59;5051039;28;20021;-75
2023/04/27 05:54:55;;;;;;;15.32;10.25;;;;;;;6.57;75.49;99955.56;5051353;28;20025;-75
2023/04/27 05:57:21;;;;;;;13.48;9.80;;;;;;;6.73;74.54;99964.66;5047497;28;20120;-75
2023/04/27 05:59:46;;;;;;;14.85;10.18;;;;;;;6.74;75.01;99945.66;5039461;28;20032;-75
2023/04/27 06:02:11;;;;;;;15.63;10.00;;;;;;;6.92;74.15;99959.84;5040719;28;20448;-75
2023/04/27 06:04:37;;;;;;;17.73;10.98;;;;;;;7.06;74.14;99968.97;5036311;28;20082;-75
2023/04/27 06:07:10;;;;;;;16.45;9.68;;;;;;;7.07;73.20;99943.03;5036891;28;20034;-76
2023/04/27 06:09:35;;;;;;;16.90;9.30;;;;;;;7.25;73.04;99952.06;5034641;28;20025;-76
2023/04/27 06:12:03;;;;;;;15.25;9.48;;;;;;;7.36;72.79;99943.97;5041514;28;20079;-75
2023/04/27 06:14:29;;;;;;;13.15;8.93;;;;;;;7.66;72.58;99955.16;5054477;28;20025;-76
2023/04/27 06:16:54;;;;;;;15.45;9.60;;;;;;;7.89;72.27;99960.53;5054476;28;20037;-76
2023/04/27 06:19:20;;;;;;;14.52;8.50;;;;;;;8.07;71.43;99955.66;5054153;28;20028;-75
2023/04/27 06:21:45;;;;;;;10.65;7.78;;;;;;;8.24;70.77;99954.22;5052849;28;20078;-75
2023/04/27 06:24:10;;;;;;;12.30;8.00;;;;;;;8.54;70.14;99966.28;5054198;28;20029;-75
2023/04/27 06:26:36;;;;;;;13.30;8.05;;;;;;;8.70;69.16;99959.69;5054130;28;20136;-75
2023/04/27 06:29:03;;;;;;;12.38;8.30;;;;;;;8.89;68.76;99960.75;5053877;28;20021;-76
2023/04/27 06:31:28;;;;;;;11.30;7.22;;;;;;;9.07;68.37;99969.66;5054089;28;20033;-76
2023/04/27 06:33:54;;;;;;;10.88;7.72;;;;;;;9.19;67.44;99956.22;5053807;28;20056;-76
2023/04/27 06:36:20;;;;;;;12.18;7.55;;;;;;;9.37;67.09;99948.66;5053769;28;20105;-76
2023/04/27 06:38:45;;;;;;;10.80;6.68;;;;;;;9.56;66.41;99969.59;5042255;28;20108;-76
2023/04/27 06:41:10;;;;;;;11.38;6.90;;;;;;;9.48;66.23;99952.56;5041178;28;20132;-75
2023/04/27 06:43:36;;;;;;;14.55;7.30;;;;;;;9.59;66.46;99953.91;5036295;28;20032;-75
2023/04/27 06:46:01;;;;;;;11.05;7.25;;;;;;;9.52;66.15;99942.88;5033726;28;20512;-75
2023/04/27 06:48:27;;;;;;;10.95;6.30;;;;;;;9.60;66.13;99972.03;5033738;28;20025;-75
2023/04/27 06:50:52;;;;;;;15.40;7.18;;;;;;;9.64;66.36;99968.41;5038522;28;20026;-75
2023/04/27 06:53:17;;;;;;;10.85;6.60;;;;;;;9.58;66.63;99966.06;5043427;28;20051;-75
2023/04/27 06:55:43;;;;;;;16.52;7.30;;;;;;;9.66;66.07;99965.78;5042384;28;20359;-76
2023/04/27 06:58:08;;;;;;;10.00;7.28;;;;;;;9.60;65.78;99956.44;5041776;28;20063;-76
2023/04/27 07:00:34;;;;;;;9.30;6.22;;;;;;;9.64;65.63;99955.41;5043353;28;20222;-75
2023/04/27 07:02:59;;;;;;;10.55;6.07;;;;;;;9.81;65.64;99952.16;5041536;28;20053;-76
2023/04/27 07:05:24;;;;;;;10.02;5.95;;;;;;;10.09;64.71;99936.31;5043126;28;20028;-76
2023/04/27 07:07:50;;;;;;;9.23;6.55;;;;;;;10.51;63.89;99934.66;5038648;28;20041;-76
2023/04/27 07:10:16;;;;;;;10.43;6.13;;;;;;;10.77;62.64;99933.56;5033289;28;20033;-76
2023/04/27 07:12:41;;;;;;;9.93;6.35;;;;;;;11.22;62.26;99956.78;5035801;28;20029;-77
2023/04/27 07:15:08;;;;;;;12.60;6.60;;;;;;;11.56;61.74;99934.41;5037158;28;20491;-77
2023/04/27 07:17:33;;;;;;;10.13;5.80;;;;;;;11.98;60.57;99952.44;5049387;28;20027;-77
2023/04/27 07:20:00;;;;;;;8.13;6.22;;;;;;;12.12;60.08;99930.91;5052884;28;20076;-77
2023/04/27 07:22:25;;;;;;;11.55;6.35;;;;;;;12.15;59.57;99939.44;5053036;28;20113;-77
2023/04/27 07:24:51;;;;;;;11.00;5.70;;;;;;;12.17;59.51;99958.47;5053325;28;20025;-77
2023/04/27 07:27:16;;;;;;;13.23;5.63;;;;;;;12.08;59.06;99931.97;5052897;28;20048;-77
2023/04/27 07:29:42;;;;;;;9.43;6.40;;;;;;;12.17;58.60;99952.41;5053042;28;20063;-76
2023/04/27 07:32:08;;;;;;;9.43;5.40;;;;;;;12.49;58.72;99953.44;5052781;28;20519;-77
2023/04/27 07:34:33;;;;;;;9.55;5.30;;;;;;;13.57;56.76;99939.16;5052912;28;20154;-77
2023/04/27 07:37:00;;;;;;;8.98;4.93;;;;;;;15.39;52.95;99933.81;5053143;28;20127;-77
2023/04/27 07:39:25;;;;;;;7.88;5.05;;;;;;;16.55;50.78;99937.78;5052746;28;20036;-77
2023/04/27 07:41:51;;;;;;;8.88;4.95;;;;;;;16.64;49.70;99940.66;5052979;28;20036;-77
2023/04/27 07:44:18;;;;;;;7.93;4.50;;;;;;;16.28;50.19;99933.44;5052650;28;20021;-77
2023/04/27 07:46:43;;;;;;;8.15;4.05;;;;;;;16.01;50.12;99953.59;5052721;28;20388;-77
2023/04/27 07:49:09;;;;;;;8.60;4.82;;;;;;;15.66;50.33;99951.44;5052172;28;20021;-77
2023/04/27 07:51:35;;;;;;;5.10;4.00;;;;;;;15.15;50.63;99930.06;5052677;28;20025;-77
2023/04/27 07:54:02;;;;;;;8.00;3.97;;;;;;;15.06;51.59;99943.75;5052670;28;20029;-77
2023/04/27 07:56:27;;;;;;;8.13;4.20;;;;;;;15.15;51.34;99940.56;5052417;28;20032;-77
2023/04/27 07:58:52;;;;;;;9.57;5.00;;;;;;;15.22;50.80;99940.09;5052619;28;20083;-77
2023/04/27 08:01:18;;;;;;;7.60;4.70;;;;;;;15.45;50.14;99961.44;5052446;28;20025;-77
2023/04/27 08:03:43;;;;;;;7.22;4.75;;;;;;;15.29;50.31;99943.19;5052453;28;20381;-77
2023/04/27 08:06:08;;;;;;;9.25;4.00;;;;;;;15.40;49.74;99942.53;5052600;28;20029;-77
2023/04/27 08:08:34;;;;;;;7.43;3.80;;;;;;;15.56;49.51;99948.50;5052179;28;20027;-77
2023/04/27 08:10:59;;;;;;;6.63;4.00;;;;;;;15.76;49.68;99943.81;5052076;28;20033;-77
2023/04/27 08:13:24;;;;;;;6.82;3.97;;;;;;;16.45;48.73;99943.66;5052032;28;20024;-77
2023/04/27 08:15:50;;;;;;;7.35;3.78;;;;;;;18.99;46.08;99943.16;5052206;28;20021;-77
2023/04/27 08:18:16;;;;;;;8.43;4.03;;;;;;;21.70;41.34;99936.72;5051855;28;20025;-77
2023/04/27 08:20:42;;;;;;;5.55;3.63;;;;;;;23.07;38.24;99939.22;5052374;28;20453;-78
2023/04/27 08:23:07;;;;;;;4.97;3.05;;;;;;;23.06;37.64;99952.66;5051765;28;20061;-77
2023/04/27 08:25:35;;;;;;;6.85;3.08;;;;;;;22.15;38.79;99937.06;5052145;28;20098;-78
2023/04/27 08:28:00;;;;;;;5.63;2.92;;;;;;;20.87;39.90;99938.53;5051202;28;20477;-78
2023/04/27 08:30:26;;;;;;;4.97;3.47;;;;;;;19.56;41.39;99942.22;5051745;28;20040;-77
2023/04/27 08:32:51;;;;;;;5.43;3.60;;;;;;;18.41;42.75;99958.94;5051877;28;20035;-77
2023/04/27 08:35:17;;;;;;;5.00;3.63;;;;;;;17.20;44.32;99948.31;5051839;28;20031;-77
2023/04/27 08:37:43;;;;;;;4.68;3.53;;;;;;;16.59;45.48;99976.09;5052008;28;20032;-77
2023/04/27 08:40:09;;;;;;;6.38;3.63;;;;;;;15.87;46.28;99949.22;5051608;28;20025;-77
2023/04/27 08:42:35;;;;;;;5.20;3.53;;;;;;;15.41;47.57;99967.81;5051945;28;20049;-77
2023/04/27 08:45:00;;;;;;;5.70;3.90;;;;;;;15.25;48.52;99970.53;5052040;28;20052;-78
2023/04/27 08:47:26;;;;;;;7.63;4.25;;;;;;;15.41;48.03;99973.91;5051500;28;20555;-79
2023/04/27 08:49:51;;;;;;;6.82;4.20;;;;;;;15.51;47.58;99978.63;5051983;28;20052;-78
2023/04/27 08:52:16;;;;;;;7.13;4.55;;;;;;;15.35;47.30;99958.56;5051483;28;20057;-78
2023/04/27 08:54:42;;;;;;;6.85;4.38;;;;;;;15.14;47.50;99946.75;5052130;28;20025;-79
2023/04/27 08:57:12;;;;;;;8.07;4.50;;;;;;;15.00;48.37;99944.09;5051524;28;20144;-79
2023/04/27 08:59:38;;;;;;;7.40;4.40;;;;;;;14.96;48.88;99957.41;5051690;28;20029;-79
2023/04/27 09:02:04;;;;;;;5.55;3.85;;;;;;;15.05;49.17;99955.19;5051464;28;20496;-79
2023/04/27 09:04:39;;;;;;;5.93;3.60;;;;;;;15.17;48.22;99975.44;5051560;28;20025;-79
2023/04/27 09:07:15;;;;;;;8.82;4.40;;;;;;;14.93;47.81;99962.00;5051808;28;20381;-79
2023/04/27 09:09:42;;;;;;;6.10;4.22;;;;;;;14.56;48.00;99961.53;5051672;28;20025;-78
2023/04/27 09:12:14;;;;;;;6.97;4.20;;;;;;;14.17;48.72;99973.34;5051718;28;20040;-79
2023/04/27 09:14:41;;;;;;;11.07;4.10;;;;;;;13.86;50.14;99950.66;5051541;28;20048;-78
2023/04/27 09:17:06;;;;;;;9.75;4.93;;;;;;;13.92;50.75;99968.63;5051863;28;20074;-78
2023/04/27 09:19:32;;;;;;;8.77;4.88;;;;;;;13.82;51.28;99966.56;5051261;28;20029;-78
2023/04/27 09:22:07;;;;;;;7.00;4.10;;;;;;;13.61;51.62;99958.13;5051828;28;20029;-78
2023/04/27 09:24:33;;;;;;;7.78;3.83;;;;;;;13.69;50.92;99959.44;5051264;28;20025;-78
2023/04/27 09:27:00;;;;;;;6.97;4.30;;;;;;;13.81;51.18;99951.81;5051063;28;20255;-78
2023/04/27 09:29:38;;;;;;;7.05;3.97;;;;;;;14.03;50.95;99959.31;5051294;28;20025;-78
2023/04/27 09:32:15;;;;;;;6.32;4.30;;;;;;;13.86;51.40;99937.56;5051540;28;20029;-78
2023/04/27 09:34:40;;;;;;;7.93;4.15;;;;;;;13.97;49.66;99950.03;5051430;28;20025;-78
2023/04/27 09:37:06;;;;;;;7.93;5.03;;;;;;;13.97;49.37;99931.69;5051415;28;20086;-79
2023/04/27 09:39:33;;;;;;;5.05;3.38;;;;;;;14.11;50.05;99928.28;5054313;28;20032;-79
2023/04/27 09:41:59;;;;;;;8.30;3.85;;;;;;;14.31;48.64;99927.16;5054968;28;20029;-78
2023/04/27 09:44:27;;;;;;;4.97;3.75;;;;;;;14.63;48.91;99954.16;5054704;28;20021;-79
2023/04/27 09:46:54;;;;;;;6.90;3.70;;;;;;;14.61;48.87;99940.28;5054641;28;20484;-79
2023/04/27 09:49:21;;;;;;;9.57;4.38;;;;;;;14.51;48.46;99937.38;5054409;28;20021;-78
2023/04/27 09:51:46;;;;;;;4.90;3.83;;;;;;;14.42;48.28;99951.00;5054665;28;20495;-78
2023/04/27 09:54:13;;;;;;;5.47;3.10;;;;;;;14.22;47.19;99946.88;5054523;28;20029;-78
2023/04/27 09:57:08;;;;;;;5.93;3.25;;;;;;;13.87;46.88;99949.72;5055023;28;20029;-78
2023/04/27 09:59:49;;;;;;;5.93;2.88;;;;;;;13.60;46.41;99956.44;5055069;28;20118;-78
2023/04/27 10:02:17;;;;;;;5.88;3.17;;;;;;;13.25;46.21;99940.88;5054542;28;20362;-78
2023/04/27 10:05:01;;;;;;;6.68;3.22;;;;;;;13.10;46.45;99968.63;5054929;28;20029;-78
2023/04/27 10:07:28;;;;;;;7.75;3.30;;;;;;;12.88;48.03;99968.03;5054423;28;20098;-78
2023/04/27 10:09:53;;;;;;;8.15;3.92;;;;;;;12.65;48.40;99959.59;5054593;28;20108;-78
2023/04/27 10:12:31;;;;;;;7.00;4.60;;;;;;;12.54;49.51;99966.28;5054401;28;20104;-78
2023/04/27 10:14:58;;;;;;;7.38;3.92;;;;;;;12.36;50.38;99957.59;5054490;28;20420;-78
2023/04/27 10:17:24;;;;;;;7.22;3.95;;;;;;;12.39;49.86;99973.13;5054510;28;20029;-78
2023/04/27 10:20:01;;;;;;;6.88;4.55;;;;;;;12.36;50.05;99971.50;5054598;28;20029;-78
2023/04/27 10:22:43;;;;;;;10.82;4.85;;;;;;;12.10;49.71;99951.88;5054285;28;20032;-78
2023/04/27 10:25:17;;;;;;;9.73;4.22;;;;;;;12.09;50.27;99965.81;5054630;28;20017;-78
2023/04/27 10:27:47;;;;;;;8.43;4.30;;;;;;;12.09;51.09;99970.19;5054258;28;20053;-78
2023/04/27 10:30:13;;;;;;;8.13;3.88;;;;;;;11.98;51.71;99961.13;5054380;28;20432;-78
2023/04/27 10:32:50;;;;;;;12.23;4.95;;;;;;;11.87;52.30;99965.16;5054248;28;20109;-78
2023/04/27 10:35:15;;;;;;;9.90;4.53;;;;;;;11.79;53.48;99973.31;5054052;28;20021;-78
2023/04/27 10:37:42;;;;;;;6.18;4.57;;;;;;;11.76;54.01;99994.34;5054041;28;20036;-78
2023/04/27 10:40:18;;;;;;;9.07;4.70;;;;;;;11.68;54.94;99997.28;5053824;28;20090;-78
2023/04/27 10:42:44;;;;;;;8.10;5.00;;;;;;;11.59;56.62;100005.53;5054084;28;20032;-78
2023/04/27 10:45:14;;;;;;;10.60;5.07;;;;;;;11.38;57.64;99988.25;5054318;28;20053;-78
2023/04/27 10:47:41;;;;;;;7.97;4.22;;;;;;;11.38;56.77;99998.69;5053906;28;20029;-78
2023/04/27 10:50:12;;;;;;;6.00;4.35;;;;;;;11.30;57.78;99983.38;5051676;28;20554;-78
2023/04/27 10:52:48;;;;;;;6.93;4.25;;;;;;;11.43;57.84;100000.16;5053782;28;20060;-78
2023/04/27 10:55:17;;;;;;;6.93;4.10;;;;;;;11.32;57.37;99983.28;5054102;28;20051;-78
2023/04/27 10:57:51;;;;;;;12.10;6.70;;;;;;;11.39;56.73;99995.16;5053744;28;20048;-78
2023/04/27 11:00:36;;;;;;;15.45;7.45;;;;;;;11.38;57.33;99990.84;5053543;28;20040;-78
2023/04/27 11:03:16;;;;;;;8.80;5.55;;;;;;;11.35;57.28;99977.94;5053440;28;20477;-78
2023/04/27 11:05:43;;;;;;;7.75;4.78;;;;;;;11.37;57.50;99996.97;5053791;28;20025;-78
2023/04/27 11:08:19;;;;;;;9.70;4.75;;;;;;;11.27;57.05;99978.28;5053628;28;20032;-78
2023/04/27 11:10:48;;;;;;;6.97;4.50;;;;;;;11.41;57.09;100004.59;5053512;28;20112;-78
2023/04/27 11:13:16;;;;;;;9.93;5.07;;;;;;;11.30;57.43;99988.59;5053607;28;20028;-78
2023/04/27 11:15:59;;;;;;;8.95;5.07;;;;;;;11.39;57.19;100008.19;5053889;28;20028;-78
2023/04/27 11:18:26;;;;;;;9.38;4.75;;;;;;;11.36;56.85;99990.06;5052212;28;20029;-78
2023/04/27 11:20:54;;;;;;;10.55;5.32;;;;;;;11.37;56.48;99987.38;5041941;28;20037;-78
2023/04/27 11:23:28;;;;;;;8.27;4.82;;;;;;;11.35;55.63;99983.16;5053332;28;20362;-78
2023/04/27 11:25:54;;;;;;;8.50;4.60;;;;;;;11.45;55.93;99972.22;5052878;28;20075;-78